createdAt,value
2019-04-21T00:00:13.113Z,19.700001
2019-04-21T00:00:28.408Z,17.299999
2019-04-21T00:00:54.065Z,17.6
2019-04-21T00:01:09.062Z,20.9
2019-04-21T00:01:25.118Z,22.4
2019-04-21T00:01:47.323Z,20.5
2019-04-21T00:02:02.094Z,18.200001
2019-04-21T00:02:26.336Z,20.4
2019-04-21T00:02:41.386Z,20.6
2019-04-21T00:02:59.503Z,20.700001
2019-04-21T00:03:24.263Z,20.299999
2019-04-21T00:03:42.890Z,20.799999
2019-04-21T00:03:59.601Z,18.799999
2019-04-21T00:04:24.423Z,20.200001
2019-04-21T00:04:45.435Z,19
2019-04-21T00:05:02.613Z,19.200001
2019-04-21T00:05:29.666Z,19.9
2019-04-21T00:05:50.923Z,20.6
2019-04-21T00:06:08.650Z,20.5
2019-04-21T00:06:29.671Z,20.4
2019-04-21T00:06:47.862Z,18.799999
2019-04-21T00:07:08.242Z,18.5
2019-04-21T00:07:24.847Z,20.200001
2019-04-21T00:07:41.851Z,20.299999
2019-04-21T00:08:07.311Z,19.9
2019-04-21T00:08:34.954Z,20.299999
2019-04-21T00:08:41.253Z,19
2019-04-21T00:09:02.156Z,19.700001
2019-04-21T00:09:24.014Z,20.200001
2019-04-21T00:09:39.464Z,20.299999
2019-04-21T00:09:58.022Z,22.6
2019-04-21T00:10:18.199Z,22.6
2019-04-21T00:10:39.747Z,19.799999
2019-04-21T00:10:56.180Z,21.1
2019-04-21T00:11:15.028Z,21.4
2019-04-21T00:11:34.113Z,20.5
2019-04-21T00:11:46.567Z,27.9
2019-04-21T00:12:07.097Z,27.6
2019-04-21T00:12:21.744Z,22.200001
2019-04-21T00:12:45.738Z,23.299999
2019-04-21T00:13:01.683Z,23.5
2019-04-21T00:13:17.530Z,23.200001
2019-04-21T00:13:37.962Z,22.799999
2019-04-21T00:13:55.933Z,24.4
2019-04-21T00:14:13.991Z,26.299999
2019-04-21T00:14:33.600Z,24.299999
2019-04-21T00:14:49.256Z,23.299999
2019-04-21T00:15:09.560Z,22.299999
2019-04-21T00:15:29.619Z,23
2019-04-21T00:15:46.298Z,22.200001
2019-04-21T00:16:02.824Z,26.200001
2019-04-21T00:16:24.227Z,25.200001
2019-04-21T00:16:43.978Z,23.799999
2019-04-21T00:17:00.442Z,23.799999
2019-04-21T00:17:18.075Z,28.1
2019-04-21T00:17:33.749Z,23.9
2019-04-21T00:17:56.980Z,22.799999
2019-04-21T00:18:12.679Z,22.6
2019-04-21T00:18:40.550Z,22.799999
2019-04-21T00:18:57.955Z,25.700001
2019-04-21T00:19:14.229Z,24.9
2019-04-21T00:19:30.550Z,23.4
2019-04-21T00:19:46.316Z,25.799999
2019-04-21T00:20:16.253Z,27.700001
2019-04-21T00:20:33.014Z,26.9
2019-04-21T00:20:46.535Z,25.700001
2019-04-21T00:21:10.892Z,22.700001
2019-04-21T00:21:29.033Z,22.9
2019-04-21T00:21:47.670Z,24.5
2019-04-21T00:22:08.428Z,25.1
2019-04-21T00:22:30.005Z,25.6
2019-04-21T00:22:47.573Z,24.4
2019-04-21T00:23:12.928Z,24.200001
2019-04-21T00:23:32.639Z,26.200001
2019-04-21T00:23:52.222Z,24.700001
2019-04-21T00:24:08.482Z,24
2019-04-21T00:24:24.742Z,28.5
2019-04-21T00:24:44.208Z,26.5
2019-04-21T00:25:07.581Z,24.9
2019-04-21T00:25:23.362Z,24.9
2019-04-21T00:25:42.566Z,23.200001
2019-04-21T00:25:58.055Z,24.5
2019-04-21T00:26:23.664Z,23.6
2019-04-21T00:26:43.579Z,23.5
2019-04-21T00:27:01.803Z,25.299999
2019-04-21T00:27:19.901Z,26.9
2019-04-21T00:27:37.974Z,24.799999
2019-04-21T00:27:56.242Z,23.9
2019-04-21T00:28:23.722Z,23.4
2019-04-21T00:28:40.615Z,23.700001
2019-04-21T00:29:03.327Z,24.6
2019-04-21T00:29:16.199Z,24.1
2019-04-21T00:29:37.656Z,22.6
2019-04-21T00:29:51.624Z,22.6
2019-04-21T00:30:15.502Z,24.200001
2019-04-21T00:30:33.855Z,24.799999
2019-04-21T00:30:50.331Z,23.6
2019-04-21T00:31:09.683Z,25.1
2019-04-21T00:31:28.166Z,27.700001
2019-04-21T00:31:45.338Z,27.1
2019-04-21T00:32:01.367Z,23.5
2019-04-21T00:32:21.705Z,23.6
2019-04-21T00:32:38.707Z,23.6
2019-04-21T00:32:56.047Z,22.5
2019-04-21T00:33:12.017Z,22.700001
2019-04-21T00:33:28.760Z,23.5
2019-04-21T00:33:44.996Z,24.4
2019-04-21T00:34:01.232Z,24.799999
2019-04-21T00:34:20.226Z,26.6
2019-04-21T00:34:40.970Z,23.200001
2019-04-21T00:35:04.604Z,23.200001
2019-04-21T00:35:20.978Z,24.5
2019-04-21T00:35:43.848Z,23.5
2019-04-21T00:36:00.557Z,24.200001
2019-04-21T00:36:20.514Z,23.9
2019-04-21T00:36:42.639Z,22.1
2019-04-21T00:37:02.932Z,22.700001
2019-04-21T00:37:20.607Z,23.5
2019-04-21T00:37:47.735Z,22.9
2019-04-21T00:38:07.744Z,22.9
2019-04-21T00:38:24.319Z,25
2019-04-21T00:38:58.607Z,21.6
2019-04-21T00:39:14.180Z,23.1
2019-04-21T00:39:35.658Z,23.4
2019-04-21T00:40:03.501Z,23.9
2019-04-21T00:40:21.879Z,24.6
2019-04-21T00:40:41.251Z,24.4
2019-04-21T00:40:59.782Z,24
2019-04-21T00:41:18.609Z,23.4
2019-04-21T00:41:36.310Z,25.6
2019-04-21T00:42:13.742Z,21.200001
2019-04-21T00:42:34.079Z,24.4
2019-04-21T00:42:48.218Z,26.4
2019-04-21T00:43:07.452Z,21.700001
2019-04-21T00:43:27.826Z,25.9
2019-04-21T00:43:44.591Z,23.299999
2019-04-21T00:44:03.949Z,22.9
2019-04-21T00:44:21.327Z,22.200001
2019-04-21T00:44:38.715Z,22.4
2019-04-21T00:45:01.661Z,22.4
2019-04-21T00:45:18.021Z,20.5
2019-04-21T00:45:38.384Z,22.1
2019-04-21T00:45:55.443Z,23.1
2019-04-21T00:46:10.680Z,21.700001
2019-04-21T00:46:34.643Z,22
2019-04-21T00:46:55.684Z,21.200001
2019-04-21T00:47:11.344Z,20.799999
2019-04-21T00:47:57.533Z,23.4
2019-04-21T00:47:57.535Z,21.9
2019-04-21T00:48:16.394Z,22.4
2019-04-21T00:48:34.190Z,21.700001
2019-04-21T00:48:56.287Z,24.1
2019-04-21T00:49:10.287Z,25
2019-04-21T00:49:26.755Z,23.4
2019-04-21T00:49:56.362Z,23.9
2019-04-21T00:50:10.549Z,25.700001
2019-04-21T00:50:31.222Z,22.4
2019-04-21T00:51:03.194Z,21.299999
2019-04-21T00:51:24.789Z,21
2019-04-21T00:51:53.198Z,24.1
2019-04-21T00:52:11.122Z,23.1
2019-04-21T00:52:37.778Z,21.799999
2019-04-21T00:52:50.571Z,20.6
2019-04-21T00:53:22.005Z,21.6
2019-04-21T00:53:28.537Z,22.700001
2019-04-21T00:53:50.981Z,21.799999
2019-04-21T00:54:08.691Z,21
2019-04-21T00:54:24.389Z,23.4
2019-04-21T00:54:47.975Z,22
2019-04-21T00:55:07.493Z,23.299999
2019-04-21T00:55:38.355Z,22.9
2019-04-21T00:55:55.131Z,21.1
2019-04-21T00:56:15.117Z,20.299999
2019-04-21T00:56:33.342Z,22.299999
2019-04-21T00:56:55.965Z,24.1
2019-04-21T00:57:16.204Z,22.1
2019-04-21T00:57:32.215Z,21.799999
2019-04-21T00:58:10.323Z,21.299999
2019-04-21T00:58:32.964Z,23.200001
2019-04-21T00:58:45.185Z,23.1
2019-04-21T00:59:05.515Z,21.4
2019-04-21T00:59:25.461Z,24.9
2019-04-21T00:59:44.964Z,24.299999
2019-04-21T01:00:06.759Z,23
2019-04-21T01:00:21.875Z,22.5
2019-04-21T01:00:38.307Z,22
2019-04-21T01:00:56.914Z,22.799999
2019-04-21T01:01:14.638Z,21.6
2019-04-21T01:01:37.440Z,21.6
2019-04-21T01:01:53.664Z,21.799999
2019-04-21T01:02:08.892Z,23.299999
2019-04-21T01:02:37.997Z,25.1
2019-04-21T01:02:54.900Z,25.299999
2019-04-21T01:03:14.054Z,26.4
2019-04-21T01:03:31.217Z,22.799999
2019-04-21T01:03:51.597Z,24.1
2019-04-21T01:04:07.689Z,24.1
2019-04-21T01:04:30.328Z,25.1
2019-04-21T01:04:49.282Z,22.700001
2019-04-21T01:05:10.713Z,22.700001
2019-04-21T01:05:25.270Z,24.9
2019-04-21T01:05:46.160Z,22.4
2019-04-21T01:06:02.985Z,23
2019-04-21T01:06:22.204Z,23.200001
2019-04-21T01:06:41.418Z,25.299999
2019-04-21T01:07:01.477Z,24.700001
2019-04-21T01:07:19.173Z,23.299999
2019-04-21T01:07:35.672Z,23.799999
2019-04-21T01:07:50.155Z,23.6
2019-04-21T01:08:12.751Z,24.1
2019-04-21T01:08:35.215Z,23.299999
2019-04-21T01:08:52.971Z,25.200001
2019-04-21T01:09:07.459Z,26.5
2019-04-21T01:09:27.408Z,22.5
2019-04-21T01:09:44.795Z,22.799999
2019-04-21T01:10:05.080Z,25
2019-04-21T01:10:20.480Z,21.9
2019-04-21T01:10:37.989Z,23.4
2019-04-21T01:10:58.694Z,25
2019-04-21T01:11:23.508Z,23.1
2019-04-21T01:11:49.080Z,23.9
2019-04-21T01:12:06.742Z,22.6
2019-04-21T01:12:25.232Z,24
2019-04-21T01:12:41.438Z,24.799999
2019-04-21T01:13:02.396Z,24.5
2019-04-21T01:13:26.032Z,24.4
2019-04-21T01:13:45.239Z,25.6
2019-04-21T01:14:03.926Z,24.799999
2019-04-21T01:14:19.756Z,24.299999
2019-04-21T01:14:40.560Z,24.5
2019-04-21T01:15:02.667Z,23.799999
2019-04-21T01:15:24.162Z,23.4
2019-04-21T01:15:52.652Z,23.1
2019-04-21T01:15:58.939Z,23.4
2019-04-21T01:16:13.607Z,22.700001
2019-04-21T01:16:32.994Z,24.1
2019-04-21T01:16:51.198Z,24.299999
2019-04-21T01:17:12.726Z,27.1
2019-04-21T01:17:27.202Z,23.700001
2019-04-21T01:17:45.853Z,22.700001
2019-04-21T01:18:08.786Z,24.4
2019-04-21T01:18:26.018Z,24
2019-04-21T01:18:42.422Z,25.6
2019-04-21T01:19:04.866Z,22.799999
2019-04-21T01:19:20.766Z,23.1
2019-04-21T01:19:39.626Z,22.5
2019-04-21T01:19:56.950Z,24.5
2019-04-21T01:22:52.440Z,25
2019-04-21T01:23:11.399Z,25.700001
2019-04-21T01:23:30.383Z,23.9
2019-04-21T01:23:49.395Z,23.700001
2019-04-21T01:24:15.817Z,23.5
2019-04-21T01:24:32.948Z,21.6
2019-04-21T01:24:48.678Z,23.4
2019-04-21T01:25:14.165Z,23.799999
2019-04-21T01:25:32.014Z,24.799999
2019-04-21T01:25:55.314Z,23.1
2019-04-21T01:26:14.404Z,22.299999
2019-04-21T01:26:32.203Z,24.4
2019-04-21T01:26:50.552Z,26.4
2019-04-21T01:27:08.560Z,26.299999
2019-04-21T01:27:29.315Z,26.4
2019-04-21T01:27:53.557Z,23.299999
2019-04-21T01:28:13.383Z,23
2019-04-21T01:28:28.780Z,24.4
2019-04-21T01:28:49.307Z,27
2019-04-21T01:29:05.245Z,24.700001
2019-04-21T01:29:24.719Z,24.700001
2019-04-21T01:29:52.872Z,24.4
2019-04-21T01:30:11.376Z,26.6
2019-04-21T01:30:28.223Z,26.1
2019-04-21T01:30:44.679Z,23.700001
2019-04-21T01:31:02.208Z,25
2019-04-21T01:31:22.347Z,23.1
2019-04-21T01:31:41.462Z,24.799999
2019-04-21T01:32:10.090Z,25
2019-04-21T01:32:23.461Z,24.200001
2019-04-21T01:32:41.988Z,23.9
2019-04-21T01:32:58.873Z,23.4
2019-04-21T01:33:21.244Z,23.1
2019-04-21T01:33:37.824Z,23.799999
2019-04-21T01:33:56.009Z,22.9
2019-04-21T01:34:14.605Z,25.799999
2019-04-21T01:34:32.812Z,23.9
2019-04-21T01:34:50.878Z,22.700001
2019-04-21T01:35:14.468Z,25.200001
2019-04-21T01:35:32.737Z,27.799999
2019-04-21T01:35:47.780Z,24.9
2019-04-21T01:36:08.015Z,23.700001
2019-04-21T01:36:23.101Z,25.299999
2019-04-21T01:36:44.421Z,25.299999
2019-04-21T01:37:03.702Z,27.200001
2019-04-21T01:37:32.467Z,23.299999
2019-04-21T01:37:49.064Z,25
2019-04-21T01:38:06.329Z,26.799999
2019-04-21T01:38:28.698Z,24
2019-04-21T01:38:47.974Z,24.4
2019-04-21T01:39:05.104Z,24.299999
2019-04-21T01:39:19.420Z,23.5
2019-04-21T01:39:40.570Z,22.4
2019-04-21T01:39:59.901Z,24.1
2019-04-21T01:40:22.496Z,24.299999
2019-04-21T01:40:39.291Z,24.4
2019-04-21T01:40:58.911Z,23.9
2019-04-21T01:41:19.692Z,24.200001
2019-04-21T01:41:50.631Z,25.700001
2019-04-21T01:42:08.663Z,25.4
2019-04-21T01:42:31.227Z,24.6
2019-04-21T01:42:50.632Z,24.6
2019-04-21T01:43:07.265Z,24.299999
2019-04-21T01:43:27.411Z,25.6
2019-04-21T01:43:45.010Z,25.4
2019-04-21T01:44:04.726Z,25
2019-04-21T01:44:29.446Z,23.4
2019-04-21T01:44:45.856Z,23.299999
2019-04-21T01:45:03.821Z,24
2019-04-21T01:45:21.048Z,24.4
2019-04-21T01:45:36.797Z,23.200001
2019-04-21T01:45:58.761Z,24
2019-04-21T01:46:13.751Z,24
2019-04-21T01:46:33.405Z,24.5
2019-04-21T01:46:51.687Z,24.799999
2019-04-21T01:47:09.959Z,27.6
2019-04-21T01:47:30.867Z,28
2019-04-21T01:47:50.508Z,23.799999
2019-04-21T01:48:08.892Z,23.799999
2019-04-21T01:48:23.927Z,23.299999
2019-04-21T01:48:42.642Z,25.1
2019-04-21T01:49:04.320Z,24.9
2019-04-21T01:49:19.033Z,24.9
2019-04-21T01:49:36.647Z,24.6
2019-04-21T01:49:55.462Z,23.5
2019-04-21T01:50:20.904Z,25.799999
2019-04-21T01:50:40.769Z,25.299999
2019-04-21T01:51:00.417Z,24.4
2019-04-21T01:51:17.946Z,25.6
2019-04-21T01:51:39.490Z,28
2019-04-21T01:52:08.634Z,26.200001
2019-04-21T01:52:23.532Z,26.1
2019-04-21T01:52:43.712Z,25.799999
2019-04-21T01:53:01.806Z,26.700001
2019-04-21T01:53:17.132Z,25
2019-04-21T01:53:36.260Z,23.700001
2019-04-21T01:53:54.678Z,27
2019-04-21T01:54:14.297Z,26.200001
2019-04-21T01:54:34.938Z,24.700001
2019-04-21T01:54:54.757Z,27.1
2019-04-21T01:55:12.167Z,26.4
2019-04-21T01:55:28.730Z,25.700001
2019-04-21T01:55:48.021Z,26.9
2019-04-21T01:56:07.580Z,24.6
2019-04-21T01:56:23.655Z,24.200001
2019-04-21T01:56:44.307Z,24.200001
2019-04-21T01:57:01.489Z,24.1
2019-04-21T01:57:22.230Z,26.200001
2019-04-21T01:57:37.185Z,27.4
2019-04-21T01:57:53.836Z,25.1
2019-04-21T01:58:14.924Z,26.5
2019-04-21T01:58:33.096Z,26.1
2019-04-21T01:58:48.064Z,24.6
2019-04-21T01:59:06.529Z,25.5
2019-04-21T01:59:30.312Z,26.200001
2019-04-21T01:59:50.145Z,27
2019-04-21T02:00:06.952Z,25.4
2019-04-21T02:00:32.505Z,26.4
2019-04-21T02:00:51.653Z,27.799999
2019-04-21T02:01:08.376Z,25.299999
2019-04-21T02:01:33.145Z,24.6
2019-04-21T02:01:52.038Z,28.5
2019-04-21T02:02:10.239Z,29.6
2019-04-21T02:02:28.960Z,25
2019-04-21T02:02:54.011Z,25.1
2019-04-21T02:03:20.852Z,25.799999
2019-04-21T02:03:59.544Z,26
2019-04-21T02:04:29.071Z,27.4
2019-04-21T02:04:47.168Z,26.4
2019-04-21T02:05:02.953Z,24.700001
2019-04-21T02:05:25.695Z,24
2019-04-21T02:05:43.767Z,26.6
2019-04-21T02:06:04.245Z,26.9
2019-04-21T02:06:20.533Z,25.799999
2019-04-21T02:06:32.946Z,27.299999
2019-04-21T02:06:57.115Z,25.5
2019-04-21T02:07:14.458Z,25.299999
2019-04-21T02:07:32.442Z,27.299999
2019-04-21T02:07:48.969Z,34.200001
2019-04-21T02:08:10.593Z,26.4
2019-04-21T02:08:27.086Z,26.4
2019-04-21T02:08:47.679Z,29
2019-04-21T02:09:03.193Z,28.299999
2019-04-21T02:09:25.367Z,27.5
2019-04-21T02:09:49.071Z,26.6
2019-04-21T02:10:10.839Z,26
2019-04-21T02:10:26.483Z,26.5
2019-04-21T02:10:45.940Z,25.5
2019-04-21T02:11:04.996Z,26.200001
2019-04-21T02:11:22.913Z,26.200001
2019-04-21T02:11:43.041Z,26
2019-04-21T02:11:59.843Z,26.700001
2019-04-21T02:12:18.651Z,24.299999
2019-04-21T02:12:37.704Z,25.9
2019-04-21T02:12:56.364Z,25.9
2019-04-21T02:13:11.597Z,25.799999
2019-04-21T02:13:31.825Z,25.200001
2019-04-21T02:13:57.057Z,25.6
2019-04-21T02:14:14.554Z,25.1
2019-04-21T02:14:37.932Z,25.6
2019-04-21T02:14:58.012Z,25.9
2019-04-21T02:15:10.942Z,29.6
2019-04-21T02:15:29.275Z,27.1
2019-04-21T02:15:48.603Z,25.799999
2019-04-21T02:16:27.973Z,25.5
2019-04-21T02:16:46.477Z,26.299999
2019-04-21T02:17:05.081Z,28.5
2019-04-21T02:17:21.585Z,24.4
2019-04-21T02:17:40.500Z,26.5
2019-04-21T02:17:58.842Z,26.299999
2019-04-21T02:18:21.878Z,25.4
2019-04-21T02:18:38.804Z,25.700001
2019-04-21T02:18:54.292Z,25.299999
2019-04-21T02:19:12.423Z,25.9
2019-04-21T02:19:31.067Z,24.4
2019-04-21T02:19:48.986Z,26.1
2019-04-21T02:20:06.410Z,25.299999
2019-04-21T02:20:25.235Z,24.299999
2019-04-21T02:20:40.873Z,25.1
2019-04-21T02:20:59.977Z,25.700001
2019-04-21T02:21:21.367Z,26.299999
2019-04-21T02:21:43.192Z,26.1
2019-04-21T02:21:58.989Z,26.799999
2019-04-21T02:22:34.918Z,26.799999
2019-04-21T02:23:17.494Z,24.5
2019-04-21T02:23:45.493Z,25.9
2019-04-21T02:24:03.568Z,26.299999
2019-04-21T02:24:28.480Z,26.1
2019-04-21T02:25:00.821Z,27.6
2019-04-21T02:25:19.620Z,28
2019-04-21T02:25:38.213Z,28.4
2019-04-21T02:25:57.190Z,27.5
2019-04-21T02:26:15.910Z,27.700001
2019-04-21T02:26:33.351Z,26.799999
2019-04-21T02:26:52.558Z,27.200001
2019-04-21T02:27:12.572Z,28.4
2019-04-21T02:27:29.431Z,29.299999
2019-04-21T02:27:49.465Z,28.4
2019-04-21T02:28:11.209Z,26.4
2019-04-21T02:28:34.965Z,26.6
2019-04-21T02:29:06.686Z,25.6
2019-04-21T02:29:26.518Z,25.1
2019-04-21T02:29:46.943Z,26.9
2019-04-21T02:30:09.948Z,25.5
2019-04-21T02:30:35.199Z,25.700001
2019-04-21T02:30:54.114Z,26.6
2019-04-21T02:31:20.250Z,28.200001
2019-04-21T02:31:26.333Z,29.6
2019-04-21T02:31:44.093Z,28.200001
2019-04-21T02:32:24.084Z,28.4
2019-04-21T02:32:47.661Z,26.1
2019-04-21T02:33:25.558Z,26.1
2019-04-21T02:33:45.497Z,27.5
2019-04-21T02:33:58.091Z,27.9
2019-04-21T02:34:12.878Z,29
2019-04-21T02:34:59.501Z,34.5
2019-04-21T02:35:29.680Z,30.799999
2019-04-21T02:36:00.086Z,25.5
2019-04-21T02:36:39.298Z,26.5
2019-04-21T02:37:03.293Z,25.799999
2019-04-21T02:37:26.837Z,25.1
2019-04-21T02:37:53.335Z,30.5
2019-04-21T02:38:07.533Z,28.299999
2019-04-21T02:38:29.519Z,29.4
2019-04-21T02:38:55.526Z,28.6
2019-04-21T02:39:24.733Z,26.9
2019-04-21T02:40:03.721Z,28.6
2019-04-21T02:40:20.725Z,29.9
2019-04-21T02:40:56.819Z,29.1
2019-04-21T02:41:12.571Z,27.200001
2019-04-21T02:41:39.597Z,27.9
2019-04-21T02:41:54.184Z,30.200001
2019-04-21T02:42:07.607Z,28.299999
2019-04-21T02:42:37.434Z,30.799999
2019-04-21T02:42:55.450Z,32
2019-04-21T02:43:10.959Z,32.400002
2019-04-21T02:43:24.610Z,28
2019-04-21T02:43:51.877Z,26.5
2019-04-21T02:44:07.941Z,27.6
2019-04-21T02:44:26.209Z,27.1
2019-04-21T02:44:51.151Z,25.4
2019-04-21T02:45:07.981Z,26.9
2019-04-21T02:45:22.677Z,28.4
2019-04-21T02:46:03.709Z,28.6
2019-04-21T02:46:46.169Z,28.6
2019-04-21T02:47:16.359Z,27.6
2019-04-21T02:47:26.752Z,29.799999
2019-04-21T02:47:26.752Z,28.9
2019-04-21T02:47:44.338Z,29.1
2019-04-21T02:48:16.878Z,27.799999
2019-04-21T02:48:37.979Z,30.799999
2019-04-21T02:49:12.808Z,28.799999
2019-04-21T02:49:21.769Z,27.299999
2019-04-21T02:49:59.348Z,26.799999
2019-04-21T02:49:59.351Z,29.6
2019-04-21T02:50:17.368Z,29.1
2019-04-21T02:50:57.200Z,27.4
2019-04-21T02:51:08.134Z,28.4
2019-04-21T02:51:33.238Z,28.200001
2019-04-21T02:51:52.298Z,29.1
2019-04-21T02:52:11.321Z,28.700001
2019-04-21T02:52:43.204Z,28.299999
2019-04-21T02:53:00.657Z,27.5
2019-04-21T02:53:26.753Z,27.9
2019-04-21T02:53:53.296Z,27.799999
2019-04-21T02:54:31.245Z,31.700001
2019-04-21T02:54:40.315Z,30.6
2019-04-21T02:54:53.166Z,30.799999
2019-04-21T02:55:13.140Z,28.299999
2019-04-21T02:55:36.080Z,27.299999
2019-04-21T02:55:50.637Z,26.799999
2019-04-21T02:56:16.539Z,31.9
2019-04-21T02:57:00.687Z,28.1
2019-04-21T02:57:21.234Z,28.9
2019-04-21T02:57:30.631Z,27.9
2019-04-21T02:57:49.247Z,27.1
2019-04-21T02:58:15.692Z,28.9
2019-04-21T02:58:50.924Z,29.6
2019-04-21T02:59:04.945Z,31.5
2019-04-21T02:59:22.503Z,27.5
2019-04-21T03:00:06.286Z,30.1
2019-04-21T03:00:23.518Z,30.9
2019-04-21T03:01:23.280Z,27.9
2019-04-21T03:01:39.879Z,27.6
2019-04-21T03:01:55.673Z,27.4
2019-04-21T03:02:13.604Z,27.299999
2019-04-21T03:02:40.475Z,27.299999
2019-04-21T03:03:12.805Z,29.5
2019-04-21T03:03:41.531Z,27.1
2019-04-21T03:04:07.910Z,28.1
2019-04-21T03:04:34.096Z,28.6
2019-04-21T03:05:01.451Z,28.799999
2019-04-21T03:05:10.899Z,27.9
2019-04-21T03:05:27.703Z,26.9
2019-04-21T03:05:44.808Z,27.4
2019-04-21T03:06:22.269Z,28.5
2019-04-21T03:06:39.161Z,29.299999
2019-04-21T03:07:17.466Z,28.9
2019-04-21T03:07:29.823Z,27.700001
2019-04-21T03:08:14.060Z,27.200001
2019-04-21T03:08:58.504Z,27.5
2019-04-21T03:09:44.241Z,28.700001
2019-04-21T03:10:10.523Z,27.9
2019-04-21T03:11:16.811Z,29.700001
2019-04-21T03:11:34.176Z,33
2019-04-21T03:12:28.431Z,27.200001
2019-04-21T03:12:37.426Z,26.9
2019-04-21T03:13:21.382Z,29.799999
2019-04-21T03:13:38.961Z,30.1
2019-04-21T03:14:15.716Z,28.4
2019-04-21T03:15:28.738Z,29.6
2019-04-21T03:15:46.868Z,27.6
2019-04-21T03:16:16.549Z,31.9
2019-04-21T03:16:46.771Z,28.4
2019-04-21T03:17:04.904Z,28.1
2019-04-21T03:17:28.942Z,27.700001
2019-04-21T03:17:48.090Z,26.700001
2019-04-21T03:18:03.552Z,28.4
2019-04-21T03:18:23.978Z,27.299999
2019-04-21T03:19:04.480Z,27.799999
2019-04-21T03:19:44.651Z,28.1
2019-04-21T03:20:16.832Z,29.1
2019-04-21T03:20:50.786Z,29.799999
2019-04-21T03:20:58.716Z,29.299999
2019-04-21T03:21:28.198Z,30.200001
2019-04-21T03:21:56.853Z,29.1
2019-04-21T03:22:11.629Z,30.700001
2019-04-21T03:22:23.804Z,30.1
2019-04-21T03:23:07.492Z,28.299999
2019-04-21T03:23:27.372Z,31.299999
2019-04-21T03:24:17.153Z,29.299999
2019-04-21T03:25:21.086Z,28.700001
2019-04-21T03:25:49.296Z,28.4
2019-04-21T03:26:00.530Z,29.5
2019-04-21T03:26:47.828Z,32.900002
2019-04-21T03:27:16.929Z,29.9
2019-04-21T03:27:28.355Z,29.1
2019-04-21T03:28:13.332Z,29.799999
2019-04-21T03:28:42.009Z,29.5
2019-04-21T03:29:11.586Z,29
2019-04-21T03:30:09.824Z,28.5
2019-04-21T03:30:41.821Z,28.1
2019-04-21T03:31:05.562Z,30.200001
2019-04-21T03:32:03.280Z,31.5
2019-04-21T03:32:44.637Z,32.799999
2019-04-21T03:33:07.937Z,29
2019-04-21T03:33:23.014Z,29.799999
2019-04-21T03:34:24.836Z,29
2019-04-21T03:34:55.791Z,29.4
2019-04-21T03:35:13.254Z,29.4
2019-04-21T03:35:43.342Z,29.5
2019-04-21T03:35:57.186Z,31.200001
2019-04-21T03:36:11.843Z,29.299999
2019-04-21T03:36:32.578Z,29.4
2019-04-21T03:36:56.224Z,31.200001
2019-04-21T03:37:22.923Z,30.299999
2019-04-21T03:37:41.853Z,30.9
2019-04-21T03:38:18.638Z,31
2019-04-21T03:38:36.502Z,28.799999
2019-04-21T03:39:07.407Z,31
2019-04-21T03:39:36.360Z,30
2019-04-21T03:40:06.579Z,31
2019-04-21T03:40:25.296Z,30.200001
2019-04-21T03:40:46.790Z,29.1
2019-04-21T03:41:10.280Z,29.299999
2019-04-21T03:41:28.592Z,30.4
2019-04-21T03:41:56.351Z,29.1
2019-04-21T03:42:38.316Z,30.9
2019-04-21T03:42:47.214Z,31.4
2019-04-21T03:43:04.057Z,33.5
2019-04-21T03:43:34.343Z,30.9
2019-04-21T03:43:42.038Z,32.799999
2019-04-21T03:43:58.703Z,29.200001
2019-04-21T03:44:36.811Z,30.299999
2019-04-21T03:44:51.858Z,29.1
2019-04-21T03:45:23.119Z,30.5
2019-04-21T03:45:48.349Z,29.4
2019-04-21T03:46:14.259Z,29.299999
2019-04-21T03:46:32.224Z,31
2019-04-21T03:47:14.437Z,30.5
2019-04-21T03:47:42.861Z,31.6
2019-04-21T03:48:07.214Z,30.700001
2019-04-21T03:48:26.562Z,29.9
2019-04-21T03:48:50.957Z,29.5
2019-04-21T03:49:10.124Z,30.299999
2019-04-21T03:49:27.133Z,30.799999
2019-04-21T03:49:47.090Z,31.299999
2019-04-21T03:50:54.555Z,32
2019-04-21T03:51:35.541Z,31.1
2019-04-21T03:52:02.790Z,31.6
2019-04-21T03:52:38.544Z,29.799999
2019-04-21T03:53:09.046Z,30.5
2019-04-21T03:53:45.727Z,32
2019-04-21T03:54:07.116Z,33.200001
2019-04-21T03:54:24.942Z,30.700001
2019-04-21T03:54:53.021Z,32.400002
2019-04-21T03:55:11.687Z,33.799999
2019-04-21T03:56:00.121Z,30.5
2019-04-21T03:56:26.849Z,31.6
2019-04-21T03:57:17.151Z,29.799999
2019-04-21T03:57:31.131Z,30.1
2019-04-21T03:57:55.222Z,32.700001
2019-04-21T03:58:23.681Z,31.799999
2019-04-21T03:58:46.200Z,32.299999
2019-04-21T03:58:57.865Z,31.1
2019-04-21T03:59:23.999Z,29.5
2019-04-21T03:59:54.753Z,31.299999
2019-04-21T04:00:20.554Z,30
2019-04-21T04:01:15.396Z,30.4
2019-04-21T04:01:46.479Z,30.799999
2019-04-21T04:02:05.551Z,30.4
2019-04-21T04:02:41.147Z,31.200001
2019-04-21T04:02:54.316Z,31.799999
2019-04-21T04:03:51.545Z,30
2019-04-21T04:04:03.223Z,31.5
2019-04-21T04:04:33.872Z,32
2019-04-21T04:05:19.503Z,29.6
2019-04-21T04:05:47.635Z,29.4
2019-04-21T04:06:07.688Z,30.4
2019-04-21T04:06:32.290Z,30.1
2019-04-21T04:06:55.317Z,29.799999
2019-04-21T04:07:10.474Z,30.1
2019-04-21T04:07:41.743Z,32.900002
2019-04-21T04:08:07.325Z,32.5
2019-04-21T04:09:09.005Z,30.4
2019-04-21T04:09:25.494Z,31.4
2019-04-21T04:10:11.502Z,30.5
2019-04-21T04:10:31.087Z,31.6
2019-04-21T04:10:42.480Z,30.200001
2019-04-21T04:11:02.493Z,30
2019-04-21T04:11:28.936Z,30.9
2019-04-21T04:11:37.470Z,31.6
2019-04-21T04:12:00.794Z,30.5
2019-04-21T04:12:10.965Z,29.4
2019-04-21T04:12:34.148Z,30.799999
2019-04-21T04:13:13.364Z,30.5
2019-04-21T04:13:36.511Z,32.200001
2019-04-21T04:13:55.266Z,31
2019-04-21T04:14:12.511Z,31.299999
2019-04-21T04:14:30.543Z,31.6
2019-04-21T04:15:20.228Z,32.099998
2019-04-21T04:15:30.640Z,33.099998
2019-04-21T04:15:45.103Z,32.900002
2019-04-21T04:16:09.911Z,32
2019-04-21T04:16:24.701Z,31.6
2019-04-21T04:16:44.847Z,32.599998
2019-04-21T04:17:16.276Z,32.200001
2019-04-21T04:17:32.359Z,31.299999
2019-04-21T04:17:53.752Z,31.6
2019-04-21T04:18:16.176Z,33.700001
2019-04-21T04:18:45.877Z,31
2019-04-21T04:19:14.396Z,29.9
2019-04-21T04:19:14.401Z,30.6
2019-04-21T04:19:53.340Z,33.5
2019-04-21T04:20:11.448Z,34.900002
2019-04-21T04:20:27.710Z,31.799999
2019-04-21T04:20:50.947Z,32
2019-04-21T04:21:12.079Z,30.799999
2019-04-21T04:21:47.346Z,30.9
2019-04-21T04:22:19.220Z,31.6
2019-04-21T04:23:19.951Z,30.9
2019-04-21T04:23:44.829Z,31.200001
2019-04-21T04:24:12.725Z,32.299999
2019-04-21T04:24:21.392Z,32.5
2019-04-21T04:24:38.650Z,31.9
2019-04-21T04:24:57.355Z,33.299999
2019-04-21T04:25:17.337Z,31.200001
2019-04-21T04:25:49.195Z,32.099998
2019-04-21T04:26:31.251Z,33
2019-04-21T04:26:45.157Z,33.299999
2019-04-21T04:27:59.214Z,31.5
2019-04-21T04:28:07.963Z,33.099998
2019-04-21T04:28:27.335Z,34.799999
2019-04-21T04:29:19.046Z,31.6
2019-04-21T04:29:37.841Z,32
2019-04-21T04:29:58.810Z,34.900002
2019-04-21T04:30:37.674Z,31.799999
2019-04-21T04:30:51.646Z,33.799999
2019-04-21T04:31:24.032Z,32.700001
2019-04-21T04:32:03.073Z,30.5
2019-04-21T04:32:34.442Z,31.1
2019-04-21T04:33:07.631Z,31.4
2019-04-21T04:33:36.970Z,31.1
2019-04-21T04:34:04.000Z,31.200001
2019-04-21T04:34:12.411Z,33.5
2019-04-21T04:34:47.039Z,33
2019-04-21T04:35:20.938Z,33.599998
2019-04-21T04:35:52.064Z,33.099998
2019-04-21T04:36:10.396Z,33.599998
2019-04-21T04:36:42.379Z,33.599998
2019-04-21T04:37:19.266Z,34.400002
2019-04-21T04:37:36.031Z,33.200001
2019-04-21T04:37:55.362Z,36.299999
2019-04-21T04:38:22.046Z,33.599998
2019-04-21T04:38:58.653Z,30.799999
2019-04-21T04:39:25.359Z,32.099998
2019-04-21T04:39:48.134Z,31.700001
2019-04-21T04:40:46.705Z,34
2019-04-21T04:41:05.633Z,36.099998
2019-04-21T04:41:24.252Z,33.299999
2019-04-21T04:41:52.476Z,32.200001
2019-04-21T04:42:12.084Z,31.299999
2019-04-21T04:42:29.570Z,30.9
2019-04-21T04:42:45.003Z,31.4
2019-04-21T04:42:55.324Z,31.700001
2019-04-21T04:44:02.811Z,31.4